createdAt,value
2022-08-01T00:00:06.491Z,100.00
2022-08-01T00:02:37.010Z,100.00
2022-08-01T00:05:05.812Z,100.00
2022-08-01T00:07:33.325Z,100.00
2022-08-01T00:10:00.832Z,100.00
2022-08-01T00:12:28.880Z,100.00
2022-08-01T00:14:55.547Z,100.00
2022-08-01T00:17:22.311Z,100.00
2022-08-01T00:19:48.835Z,100.00
2022-08-01T00:22:18.178Z,100.00
2022-08-01T00:24:44.725Z,100.00
2022-08-01T00:27:12.667Z,100.00
2022-08-01T00:30:11.682Z,100.00
2022-08-01T00:32:26.385Z,100.00
2022-08-01T00:34:55.819Z,100.00
2022-08-01T00:37:22.733Z,100.00
2022-08-01T00:39:49.655Z,100.00
2022-08-01T00:42:17.719Z,100.00
2022-08-01T00:44:44.257Z,100.00
2022-08-01T00:47:11.872Z,100.00
2022-08-01T00:49:40.491Z,100.00
2022-08-01T00:52:08.030Z,100.00
2022-08-01T00:54:36.767Z,100.00
2022-08-01T00:57:09.910Z,100.00
2022-08-01T00:59:37.730Z,100.00
2022-08-01T01:02:14.527Z,100.00
2022-08-01T01:04:41.779Z,100.00
2022-08-01T01:07:39.930Z,100.00
2022-08-01T01:10:23.643Z,100.00
2022-08-01T01:12:53.396Z,100.00
2022-08-01T01:15:37.092Z,100.00
2022-08-01T01:18:05.833Z,100.00
2022-08-01T01:20:39.231Z,100.00
2022-08-01T01:23:19.014Z,100.00
2022-08-01T01:26:23.009Z,100.00
2022-08-01T01:29:07.204Z,100.00
2022-08-01T01:31:41.681Z,100.00
2022-08-01T01:34:10.593Z,100.00
2022-08-01T01:36:39.195Z,100.00
2022-08-01T01:39:07.900Z,100.00
2022-08-01T01:41:37.693Z,100.00
2022-08-01T01:44:06.771Z,100.00
2022-08-01T01:46:34.624Z,100.00
2022-08-01T01:49:04.160Z,100.00
2022-08-01T01:51:32.242Z,100.00
2022-08-01T01:54:00.654Z,100.00
2022-08-01T01:56:28.694Z,100.00
2022-08-01T01:59:00.381Z,100.00
2022-08-01T02:01:58.536Z,100.00
2022-08-01T02:04:20.949Z,100.00
2022-08-01T02:06:50.929Z,100.00
2022-08-01T02:09:19.658Z,100.00
2022-08-01T02:12:07.605Z,100.00
2022-08-01T02:14:38.942Z,100.00
2022-08-01T02:17:05.642Z,100.00
2022-08-01T02:19:38.582Z,100.00
2022-08-01T02:22:21.721Z,100.00
2022-08-01T02:25:06.555Z,100.00
2022-08-01T02:27:45.098Z,100.00
2022-08-01T02:30:15.059Z,100.00
2022-08-01T02:32:52.163Z,100.00
2022-08-01T02:35:27.679Z,100.00
2022-08-01T02:37:57.297Z,100.00
2022-08-01T02:40:27.436Z,100.00
2022-08-01T02:42:56.709Z,100.00
2022-08-01T02:45:26.357Z,100.00
2022-08-01T02:48:06.359Z,100.00
2022-08-01T02:50:32.974Z,100.00
2022-08-01T02:53:01.258Z,99.93
2022-08-01T02:55:29.031Z,98.89
2022-08-01T02:58:00.763Z,99.04
2022-08-01T03:00:31.859Z,97.49
2022-08-01T03:03:02.347Z,97.30
2022-08-01T03:05:31.417Z,97.00
2022-08-01T03:08:02.543Z,97.26
2022-08-01T03:10:35.982Z,96.93
2022-08-01T03:13:06.266Z,96.14
2022-08-01T03:15:40.537Z,95.34
2022-08-01T03:18:10.463Z,94.75
2022-08-01T03:20:39.474Z,94.17
2022-08-01T03:23:09.729Z,95.49
2022-08-01T03:25:39.690Z,95.77
2022-08-01T03:28:07.575Z,95.51
2022-08-01T03:30:36.708Z,95.79
2022-08-01T03:33:04.528Z,96.27
2022-08-01T03:35:37.037Z,97.56
2022-08-01T03:38:16.102Z,96.19
2022-08-01T03:41:09.377Z,96.08
2022-08-01T03:43:48.285Z,95.28
2022-08-01T03:46:19.950Z,95.27
2022-08-01T03:48:51.991Z,96.00
2022-08-01T03:51:19.284Z,96.57
2022-08-01T03:53:48.535Z,97.01
2022-08-01T03:56:22.797Z,97.59
2022-08-01T03:58:58.440Z,97.69
2022-08-01T04:01:25.506Z,97.33
2022-08-01T04:03:52.348Z,97.32
2022-08-01T04:06:20.425Z,97.74
2022-08-01T04:08:56.583Z,99.20
2022-08-01T04:11:26.527Z,99.13
2022-08-01T04:13:54.223Z,97.67
2022-08-01T04:16:23.440Z,98.31
2022-08-01T04:18:50.045Z,98.25
2022-08-01T04:21:21.594Z,98.42
2022-08-01T04:23:51.529Z,100.00
2022-08-01T04:26:22.548Z,100.00
2022-08-01T04:28:51.984Z,100.00
2022-08-01T04:31:19.865Z,100.00
2022-08-01T04:33:50.749Z,98.65
2022-08-01T04:36:20.811Z,95.61
2022-08-01T04:38:51.624Z,95.80
2022-08-01T04:41:19.713Z,93.56
2022-08-01T04:43:47.629Z,91.19
2022-08-01T04:46:15.549Z,90.87
2022-08-01T04:48:42.471Z,89.04
2022-08-01T04:51:17.381Z,85.12
2022-08-01T04:53:46.809Z,84.73
2022-08-01T04:56:14.385Z,82.12
2022-08-01T04:58:42.364Z,81.21
2022-08-01T05:01:10.370Z,81.59
2022-08-01T05:03:39.142Z,81.50
2022-08-01T05:06:07.984Z,83.68
2022-08-01T05:08:34.552Z,82.58
2022-08-01T05:11:02.173Z,81.11
2022-08-01T05:13:28.960Z,80.07
2022-08-01T05:15:55.621Z,77.35
2022-08-01T05:18:28.288Z,75.51
2022-08-01T05:20:55.970Z,66.10
2022-08-01T05:23:31.061Z,62.62
2022-08-01T05:26:09.358Z,60.67
2022-08-01T05:28:37.692Z,59.17
2022-08-01T05:31:04.949Z,58.60
2022-08-01T05:33:31.492Z,60.26
2022-08-01T05:35:58.012Z,56.47
2022-08-01T05:38:24.556Z,48.16
2022-08-01T05:40:51.107Z,46.58
2022-08-01T05:43:17.644Z,45.63
2022-08-01T05:45:45.492Z,46.80
2022-08-01T05:48:12.255Z,43.88
2022-08-01T05:50:39.351Z,41.48
2022-08-01T05:53:06.589Z,43.28
2022-08-01T05:55:33.388Z,46.34
2022-08-01T05:58:03.164Z,47.42
2022-08-01T06:00:31.219Z,46.01
2022-08-01T06:02:59.000Z,45.81
2022-08-01T06:05:26.732Z,46.00
2022-08-01T06:07:53.479Z,45.24
2022-08-01T06:10:20.869Z,39.42
2022-08-01T06:12:47.503Z,36.98
2022-08-01T06:15:13.999Z,36.33
2022-08-01T06:17:42.194Z,34.97
2022-08-01T06:20:09.601Z,37.04
2022-08-01T06:22:36.404Z,37.02
2022-08-01T06:25:03.372Z,39.23
2022-08-01T06:27:36.266Z,41.82
2022-08-01T06:30:03.848Z,41.67
2022-08-01T06:32:30.686Z,39.73
2022-08-01T06:34:57.509Z,37.92
2022-08-01T06:37:24.676Z,36.06
2022-08-01T06:39:52.175Z,33.78
2022-08-01T06:42:19.101Z,36.48
2022-08-01T06:44:48.322Z,35.89
2022-08-01T06:47:14.714Z,32.88
2022-08-01T06:49:41.305Z,30.58
2022-08-01T06:52:09.385Z,31.18
2022-08-01T06:54:36.177Z,30.38
2022-08-01T06:57:06.986Z,30.25
2022-08-01T06:59:33.803Z,29.18
2022-08-01T07:02:01.930Z,31.38
2022-08-01T07:04:28.550Z,29.39
2022-08-01T07:06:55.460Z,29.21
2022-08-01T07:09:22.466Z,30.36
2022-08-01T07:11:49.005Z,28.29
2022-08-01T07:14:15.541Z,29.04
2022-08-01T07:16:43.135Z,28.91
2022-08-01T07:19:09.669Z,27.36
2022-08-01T07:21:38.612Z,28.40
2022-08-01T07:24:13.366Z,26.57
2022-08-01T07:26:52.462Z,27.86
2022-08-01T07:29:21.539Z,26.46
2022-08-01T07:31:48.097Z,26.56
2022-08-01T07:34:14.648Z,27.80
2022-08-01T07:36:41.212Z,27.21
2022-08-01T07:39:08.378Z,25.51
2022-08-01T07:42:02.986Z,27.20
2022-08-01T07:44:22.697Z,28.00
2022-08-01T07:46:49.209Z,26.69
2022-08-01T07:49:15.928Z,25.56
2022-08-01T07:51:42.521Z,24.10
2022-08-01T07:54:33.536Z,27.47
2022-08-01T07:57:00.525Z,24.68
2022-08-01T07:59:27.088Z,25.05
2022-08-01T08:01:53.666Z,24.31
2022-08-01T08:04:20.353Z,26.17
2022-08-01T08:06:48.531Z,25.35
2022-08-01T08:09:16.897Z,24.58
2022-08-01T08:11:47.875Z,23.12
2022-08-01T08:14:18.426Z,25.09
2022-08-01T08:16:45.429Z,26.89
2022-08-01T08:19:12.958Z,26.15
2022-08-01T08:21:39.849Z,24.71
2022-08-01T08:24:26.162Z,24.37
2022-08-01T08:27:01.764Z,25.63
2022-08-01T08:29:30.901Z,24.81
2022-08-01T08:31:57.651Z,24.32
2022-08-01T08:34:25.267Z,26.93
2022-08-01T08:36:52.909Z,25.30
2022-08-01T08:39:20.376Z,24.70
2022-08-01T08:41:50.796Z,25.40
2022-08-01T08:44:18.974Z,27.76
2022-08-01T08:46:46.704Z,25.00
2022-08-01T08:49:18.171Z,25.29
2022-08-01T08:51:47.638Z,27.75
2022-08-01T08:54:16.565Z,25.29
2022-08-01T08:56:45.006Z,24.46
2022-08-01T08:59:14.245Z,24.65
2022-08-01T09:01:42.457Z,25.69
2022-08-01T09:04:09.819Z,24.75
2022-08-01T09:06:36.784Z,28.05
2022-08-01T09:09:04.006Z,24.42
2022-08-01T09:11:30.942Z,24.31
2022-08-01T09:14:13.279Z,24.52
2022-08-01T09:16:48.507Z,25.39
2022-08-01T09:19:40.706Z,22.46
2022-08-01T09:22:12.778Z,24.78
2022-08-01T09:24:41.446Z,23.12
2022-08-01T09:27:21.931Z,24.59
2022-08-01T09:30:00.767Z,27.01
2022-08-01T09:32:34.769Z,26.95
2022-08-01T09:35:24.390Z,26.61
2022-08-01T09:38:31.061Z,26.53
2022-08-01T09:41:01.571Z,28.69
2022-08-01T09:43:32.227Z,26.11
2022-08-01T09:45:59.873Z,27.42
2022-08-01T09:48:29.640Z,26.63
2022-08-01T09:51:03.952Z,27.76
2022-08-01T09:53:52.385Z,27.99
2022-08-01T09:56:21.123Z,26.27
2022-08-01T09:59:01.015Z,24.73
2022-08-01T10:01:49.382Z,27.89
2022-08-01T10:04:16.913Z,27.80
2022-08-01T10:06:50.849Z,28.14
2022-08-01T10:09:28.697Z,28.25
2022-08-01T10:12:07.874Z,27.86
2022-08-01T10:14:37.252Z,30.15
2022-08-01T10:17:05.291Z,31.91
2022-08-01T10:19:33.696Z,30.20
2022-08-01T10:22:01.496Z,31.90
2022-08-01T10:24:33.622Z,36.15
2022-08-01T10:27:12.414Z,32.94
2022-08-01T10:30:05.450Z,32.82
2022-08-01T10:32:36.623Z,32.49
2022-08-01T10:35:07.293Z,35.61
2022-08-01T10:37:52.380Z,39.67
2022-08-01T10:40:30.319Z,40.13
2022-08-01T10:42:57.976Z,36.64
2022-08-01T10:45:27.482Z,35.38
2022-08-01T10:48:28.924Z,28.45
2022-08-01T10:50:59.059Z,30.72
2022-08-01T10:53:31.989Z,28.37
2022-08-01T10:56:11.105Z,28.58
2022-08-01T10:58:44.402Z,27.59
2022-08-01T11:01:26.322Z,27.03
2022-08-01T11:04:04.209Z,30.77
2022-08-01T11:06:33.854Z,29.24
2022-08-01T11:09:16.568Z,27.18
2022-08-01T11:12:13.412Z,26.80
2022-08-01T11:15:18.082Z,25.81
2022-08-01T11:17:57.858Z,29.06
2022-08-01T11:20:39.578Z,31.85
2022-08-01T11:23:09.392Z,28.46
2022-08-01T11:26:05.708Z,27.27
2022-08-01T11:28:32.372Z,27.52
2022-08-01T11:31:14.053Z,26.92
2022-08-01T11:33:45.760Z,27.07
2022-08-01T11:36:57.724Z,25.43
2022-08-01T11:39:22.849Z,25.69
2022-08-01T11:41:53.619Z,24.29
2022-08-01T11:44:30.134Z,26.08
2022-08-01T11:47:08.956Z,29.74
2022-08-01T11:49:44.944Z,31.96
2022-08-01T11:52:17.707Z,28.92
2022-08-01T11:54:50.628Z,27.88
2022-08-01T11:57:45.848Z,26.71
2022-08-01T12:00:18.604Z,26.83
2022-08-01T12:02:46.841Z,27.31
2022-08-01T12:05:17.386Z,29.20
2022-08-01T12:07:45.831Z,26.77
2022-08-01T12:10:13.609Z,25.32
2022-08-01T12:12:51.727Z,26.14
2022-08-01T12:15:20.913Z,24.69
2022-08-01T12:17:58.333Z,25.65
2022-08-01T12:20:30.460Z,27.19
2022-08-01T12:22:58.881Z,27.75
2022-08-01T12:25:25.530Z,26.52
2022-08-01T12:27:56.203Z,24.83
2022-08-01T12:30:24.914Z,25.32
2022-08-01T12:32:52.212Z,26.76
2022-08-01T12:35:26.861Z,25.87
2022-08-01T12:37:58.040Z,26.18
2022-08-01T12:40:26.197Z,26.95
2022-08-01T12:42:55.027Z,26.28
2022-08-01T12:45:27.603Z,25.11
2022-08-01T12:47:55.155Z,27.92
2022-08-01T12:50:26.523Z,24.38
2022-08-01T12:52:53.376Z,26.90
2022-08-01T12:55:21.605Z,27.32
2022-08-01T12:58:04.224Z,28.16
2022-08-01T13:00:30.915Z,27.53
2022-08-01T13:03:18.735Z,26.38
2022-08-01T13:05:51.270Z,27.43
2022-08-01T13:08:22.601Z,26.73
2022-08-01T13:10:51.119Z,26.76
2022-08-01T13:13:27.777Z,28.95
2022-08-01T13:16:06.286Z,28.10
2022-08-01T13:18:34.635Z,28.11
2022-08-01T13:21:21.315Z,28.67
2022-08-01T13:24:06.204Z,30.17
2022-08-01T13:26:46.203Z,31.08
2022-08-01T13:29:21.822Z,29.49
2022-08-01T13:31:48.935Z,28.31
2022-08-01T13:34:15.945Z,26.57
2022-08-01T13:36:49.133Z,26.21
2022-08-01T13:39:35.521Z,28.12
2022-08-01T13:42:02.191Z,29.20
2022-08-01T13:44:28.707Z,30.91
2022-08-01T13:46:56.938Z,31.26
2022-08-01T13:49:24.061Z,32.83
2022-08-01T13:51:51.636Z,34.83
2022-08-01T13:54:18.782Z,35.10
2022-08-01T13:56:45.953Z,35.32
2022-08-01T13:59:13.330Z,35.63
2022-08-01T14:01:40.060Z,35.65
2022-08-01T14:04:07.153Z,36.31
2022-08-01T14:06:34.058Z,37.23
2022-08-01T14:09:01.180Z,35.64
2022-08-01T14:11:36.989Z,35.63
2022-08-01T14:14:04.051Z,36.92
2022-08-01T14:16:31.001Z,35.38
2022-08-01T14:18:57.493Z,36.12
2022-08-01T14:21:24.011Z,37.73
2022-08-01T14:23:50.575Z,35.56
2022-08-01T14:26:17.092Z,35.42
2022-08-01T14:28:43.621Z,34.52
2022-08-01T14:31:10.245Z,34.19
2022-08-01T14:34:15.159Z,34.97
2022-08-01T14:36:43.633Z,36.35
2022-08-01T14:39:14.841Z,37.99
2022-08-01T14:41:41.731Z,37.66
2022-08-01T14:44:09.889Z,38.14
2022-08-01T14:46:51.409Z,38.54
2022-08-01T14:49:24.740Z,38.75
2022-08-01T14:51:51.332Z,39.06
2022-08-01T14:54:17.830Z,39.74
2022-08-01T14:56:54.094Z,38.69
2022-08-01T14:59:21.215Z,38.37
2022-08-01T15:01:48.575Z,38.67
2022-08-01T15:04:15.322Z,37.10
2022-08-01T15:06:42.110Z,37.77
2022-08-01T15:09:09.577Z,37.88
2022-08-01T15:11:36.178Z,38.56
2022-08-01T15:14:22.155Z,37.23
2022-08-01T15:16:48.978Z,37.79
2022-08-01T15:19:17.614Z,38.86
2022-08-01T15:21:44.500Z,38.17
2022-08-01T15:24:11.540Z,40.18
2022-08-01T15:26:38.137Z,38.79
2022-08-01T15:29:04.708Z,39.23
2022-08-01T15:31:31.499Z,39.23
2022-08-01T15:33:59.106Z,39.80
2022-08-01T15:36:28.470Z,40.24
2022-08-01T15:38:56.254Z,38.55
2022-08-01T15:41:22.845Z,37.61
2022-08-01T15:43:56.058Z,38.04
2022-08-01T15:46:23.613Z,39.59
2022-08-01T15:48:52.457Z,41.14
2022-08-01T15:51:19.115Z,40.26
2022-08-01T15:53:48.052Z,41.07
2022-08-01T15:56:14.703Z,41.58
2022-08-01T15:58:41.211Z,42.14
2022-08-01T16:01:07.759Z,41.71
2022-08-01T16:03:34.539Z,43.14
2022-08-01T16:06:01.165Z,41.99
2022-08-01T16:08:27.716Z,42.12
2022-08-01T16:10:54.334Z,41.75
2022-08-01T16:13:20.869Z,42.17
2022-08-01T16:15:47.410Z,41.88
2022-08-01T16:18:14.481Z,42.58
2022-08-01T16:20:45.434Z,45.56
2022-08-01T16:23:13.545Z,45.02
2022-08-01T16:25:40.109Z,43.43
2022-08-01T16:28:06.958Z,43.80
2022-08-01T16:30:33.502Z,44.80
2022-08-01T16:33:07.862Z,44.45
2022-08-01T16:35:46.910Z,45.96
2022-08-01T16:38:21.051Z,45.30
2022-08-01T16:40:48.652Z,46.06
2022-08-01T16:43:15.915Z,45.13
2022-08-01T16:45:43.169Z,45.31
2022-08-01T16:48:12.332Z,46.71
2022-08-01T16:50:39.613Z,46.29
2022-08-01T16:53:06.126Z,47.66
2022-08-01T16:55:50.113Z,46.44
2022-08-01T16:58:19.700Z,47.13
2022-08-01T17:00:56.598Z,46.73
2022-08-01T17:03:47.101Z,47.12
2022-08-01T17:06:12.686Z,47.58
2022-08-01T17:08:46.797Z,48.30
2022-08-01T17:11:14.664Z,48.90
2022-08-01T17:13:41.419Z,49.01
2022-08-01T17:16:09.025Z,48.43
2022-08-01T17:18:35.697Z,49.50
2022-08-01T17:21:02.784Z,49.27
2022-08-01T17:23:31.506Z,48.14
2022-08-01T17:25:58.565Z,48.43
2022-08-01T17:28:26.605Z,49.12
2022-08-01T17:30:53.402Z,48.81
2022-08-01T17:33:21.313Z,49.62
2022-08-01T17:35:48.331Z,50.46
2022-08-01T17:38:15.036Z,50.37
2022-08-01T17:40:41.960Z,50.54
2022-08-01T17:43:09.061Z,50.05
2022-08-01T17:45:39.359Z,50.89
2022-08-01T17:48:17.825Z,50.17
2022-08-01T17:50:46.318Z,50.63
2022-08-01T17:53:13.717Z,50.53
2022-08-01T17:55:55.741Z,51.43
2022-08-01T17:58:50.341Z,52.64
2022-08-01T18:01:17.222Z,52.66
2022-08-01T18:03:44.541Z,53.23
2022-08-01T18:06:19.827Z,52.77
2022-08-01T18:08:50.588Z,54.19
2022-08-01T18:11:22.464Z,53.92
2022-08-01T18:13:51.122Z,54.90
2022-08-01T18:16:17.677Z,55.60
2022-08-01T18:18:44.251Z,57.03
2022-08-01T18:21:12.275Z,56.21
2022-08-01T18:23:38.898Z,55.05
2022-08-01T18:26:07.521Z,55.49
2022-08-01T18:28:46.206Z,55.17
2022-08-01T18:31:17.691Z,56.85
2022-08-01T18:33:48.006Z,55.48
2022-08-01T18:36:31.998Z,55.37
2022-08-01T18:39:01.901Z,55.99
2022-08-01T18:41:31.514Z,57.42
2022-08-01T18:44:05.643Z,57.12
2022-08-01T18:46:37.042Z,57.35
2022-08-01T18:49:03.759Z,58.44
2022-08-01T18:51:30.461Z,57.73
2022-08-01T18:53:57.821Z,59.80
2022-08-01T18:56:24.515Z,59.52
2022-08-01T18:58:51.244Z,56.90
2022-08-01T19:01:17.919Z,57.78
2022-08-01T19:03:45.239Z,57.55
2022-08-01T19:06:11.811Z,60.10
2022-08-01T19:08:38.554Z,58.59
2022-08-01T19:11:05.910Z,58.53
2022-08-01T19:13:33.436Z,61.82
2022-08-01T19:16:00.640Z,62.63
2022-08-01T19:18:28.420Z,63.46
2022-08-01T19:20:55.071Z,63.36
2022-08-01T19:23:40.491Z,65.94
2022-08-01T19:26:12.501Z,66.90
2022-08-01T19:28:46.835Z,67.49
2022-08-01T19:31:14.872Z,69.22
2022-08-01T19:33:42.079Z,69.88
2022-08-01T19:36:14.789Z,70.39
2022-08-01T19:38:41.781Z,68.19
2022-08-01T19:41:08.883Z,68.40
2022-08-01T19:43:42.428Z,69.43
2022-08-01T19:46:17.232Z,70.07
2022-08-01T19:48:49.856Z,71.46
2022-08-01T19:51:22.765Z,71.53
2022-08-01T19:54:04.463Z,73.19
2022-08-01T19:56:37.638Z,73.14
2022-08-01T19:59:07.884Z,71.17
2022-08-01T20:01:36.514Z,71.87
2022-08-01T20:04:04.720Z,72.11
2022-08-01T20:06:32.002Z,72.56
2022-08-01T20:08:59.866Z,73.83
2022-08-01T20:11:27.098Z,73.32
2022-08-01T20:13:56.814Z,74.20
2022-08-01T20:16:28.735Z,75.42
2022-08-01T20:18:56.195Z,75.70
2022-08-01T20:21:31.273Z,75.99
2022-08-01T20:24:03.203Z,77.56
2022-08-01T20:26:31.750Z,77.87
2022-08-01T20:28:59.756Z,79.64
2022-08-01T20:31:36.133Z,80.16
2022-08-01T20:34:15.663Z,81.62
2022-08-01T20:36:54.714Z,82.62
2022-08-01T20:39:26.647Z,83.12
2022-08-01T20:41:59.617Z,82.43
2022-08-01T20:44:27.471Z,83.91
2022-08-01T20:46:55.215Z,83.78
2022-08-01T20:49:22.606Z,85.28
2022-08-01T20:51:50.736Z,85.92
2022-08-01T20:54:17.377Z,88.51
2022-08-01T20:57:09.113Z,89.00
2022-08-01T21:00:02.432Z,90.12
2022-08-01T21:02:52.213Z,90.91
2022-08-01T21:05:34.107Z,91.74
2022-08-01T21:08:12.613Z,91.12
2022-08-01T21:10:41.464Z,90.89
2022-08-01T21:13:21.297Z,90.98
2022-08-01T21:16:21.998Z,91.76
2022-08-01T21:19:10.091Z,91.13
2022-08-01T21:21:42.993Z,91.60
2022-08-01T21:24:18.575Z,92.08
2022-08-01T21:26:46.410Z,93.39
2022-08-01T21:29:14.305Z,92.61
2022-08-01T21:31:42.013Z,94.68
2022-08-01T21:34:09.772Z,94.33
2022-08-01T21:36:37.233Z,94.91
2022-08-01T21:39:06.506Z,96.63
2022-08-01T21:42:04.630Z,98.30
2022-08-01T21:44:22.837Z,98.62
2022-08-01T21:46:59.802Z,99.10
2022-08-01T21:49:28.000Z,98.57
2022-08-01T21:52:00.439Z,98.77
2022-08-01T21:54:38.004Z,99.46
2022-08-01T21:57:15.955Z,99.11
2022-08-01T21:59:49.894Z,99.89
2022-08-01T22:02:30.890Z,98.42
2022-08-01T22:05:03.709Z,99.71
2022-08-01T22:07:36.734Z,100.00
2022-08-01T22:10:05.945Z,100.00
2022-08-01T22:12:36.064Z,100.00
2022-08-01T22:15:06.011Z,100.00
2022-08-01T22:17:33.050Z,100.00
2022-08-01T22:20:00.415Z,100.00
2022-08-01T22:22:45.383Z,100.00
2022-08-01T22:25:15.625Z,100.00
2022-08-01T22:28:06.743Z,100.00
2022-08-01T22:30:30.323Z,100.00
2022-08-01T22:33:15.268Z,100.00
2022-08-01T22:35:49.911Z,100.00
2022-08-01T22:38:24.258Z,100.00
2022-08-01T22:41:00.531Z,100.00
2022-08-01T22:43:39.412Z,100.00
2022-08-01T22:46:17.330Z,100.00
2022-08-01T22:48:52.645Z,100.00
2022-08-01T22:51:40.905Z,100.00
2022-08-01T22:54:11.934Z,100.00
2022-08-01T22:56:49.601Z,100.00
2022-08-01T22:59:41.757Z,100.00
2022-08-01T23:02:15.404Z,100.00
2022-08-01T23:04:51.300Z,100.00
2022-08-01T23:07:28.212Z,100.00
2022-08-01T23:09:56.986Z,100.00
2022-08-01T23:12:25.506Z,100.00
2022-08-01T23:14:57.942Z,100.00
2022-08-01T23:17:29.223Z,100.00
2022-08-01T23:19:58.324Z,100.00
2022-08-01T23:22:29.189Z,100.00
2022-08-01T23:25:04.343Z,100.00
2022-08-01T23:27:57.857Z,100.00
2022-08-01T23:30:31.836Z,100.00
2022-08-01T23:32:59.010Z,100.00
2022-08-01T23:35:26.653Z,100.00
2022-08-01T23:38:02.089Z,100.00
2022-08-01T23:40:31.065Z,100.00
2022-08-01T23:42:57.641Z,100.00
2022-08-01T23:45:24.487Z,100.00
2022-08-01T23:47:52.181Z,100.00
2022-08-01T23:50:19.639Z,99.48
2022-08-01T23:52:54.399Z,100.00
2022-08-01T23:55:31.456Z,99.14
2022-08-01T23:58:06.744Z,99.33
